Time;durP1;ratioP1;P1;durP2;ratioP2;P2;SDS_P1;SDS_P2;PMS_P1;PMS_P2;Temp;Humidity;BMP_temperature;BMP_pressure;BME280_temperature;BME280_humidity;BME280_pressure;Samples;Min_cycle;Max_cycle;Signal;HPM_P1;HPM_P2
2021/05/21 00:00:15;;;;;;;2.07;1.20;;;7.30;99.90;;;;;;5076480;28;20176;-80
2021/05/21 00:02:41;;;;;;;1.87;1.77;;;7.20;99.90;;;;;;5076873;28;20197;-80
2021/05/21 00:05:07;;;;;;;3.63;1.33;;;7.20;99.90;;;;;;5077234;28;20649;-80
2021/05/21 00:07:33;;;;;;;1.90;1.70;;;7.20;99.90;;;;;;5080238;28;20192;-80
2021/05/21 00:09:58;;;;;;;1.50;1.30;;;7.10;99.90;;;;;;5080601;28;20181;-80
2021/05/21 00:12:24;;;;;;;2.13;1.70;;;7.00;99.90;;;;;;5078149;28;20211;-80
2021/05/21 00:14:50;;;;;;;2.03;1.57;;;7.00;99.90;;;;;;5078835;28;20169;-80
2021/05/21 00:17:16;;;;;;;2.57;1.70;;;6.90;99.90;;;;;;5077888;28;20181;-80
2021/05/21 00:19:41;;;;;;;1.90;1.70;;;6.90;99.90;;;;;;5078700;28;20169;-80
2021/05/21 00:22:07;;;;;;;1.77;1.67;;;;;;;;;;5078906;28;20321;-80
2021/05/21 00:24:34;;;;;;;1.60;1.40;;;6.80;99.90;;;;;;5079103;28;20222;-80
2021/05/21 00:26:59;;;;;;;1.90;1.80;;;6.80;99.90;;;;;;5077243;28;20177;-80
2021/05/21 00:29:25;;;;;;;1.67;1.50;;;6.80;99.90;;;;;;5078002;28;20635;-79
2021/05/21 00:31:50;;;;;;;5.03;1.73;;;6.70;99.90;;;;;;5078490;28;20199;-79
2021/05/21 00:34:16;;;;;;;1.70;1.60;;;6.80;99.90;;;;;;5078507;28;20203;-80
2021/05/21 00:36:42;;;;;;;1.63;1.30;;;6.70;99.90;;;;;;5078694;28;20173;-79
2021/05/21 00:39:07;;;;;;;2.43;1.50;;;6.70;99.90;;;;;;5076769;28;20627;-79
2021/05/21 00:41:33;;;;;;;1.30;1.20;;;6.70;99.90;;;;;;5078356;28;20177;-79
2021/05/21 00:43:59;;;;;;;1.20;1.10;;;6.80;99.90;;;;;;5077727;28;20261;-80
2021/05/21 00:46:25;;;;;;;1.27;1.00;;;6.80;99.90;;;;;;5077888;28;20586;-80
2021/05/21 00:48:51;;;;;;;3.23;1.10;;;6.80;99.90;;;;;;5077623;28;20177;-80
2021/05/21 00:51:17;;;;;;;1.30;1.20;;;6.80;99.90;;;;;;5078713;28;20176;-80
2021/05/21 00:53:45;;;;;;;1.20;0.90;;;6.80;99.90;;;;;;5077554;28;20774;-79
2021/05/21 00:56:11;;;;;;;1.47;1.30;;;;;;;;;;5077382;28;20180;-79
2021/05/21 00:58:37;;;;;;;1.53;1.20;;;6.80;99.90;;;;;;5076305;28;20800;-79
2021/05/21 01:01:04;;;;;;;2.03;1.30;;;6.80;99.90;;;;;;5077996;28;20411;-80
2021/05/21 01:03:29;;;;;;;1.10;0.93;;;6.80;99.90;;;;;;5085101;28;20450;-79
2021/05/21 01:05:55;;;;;;;2.47;1.07;;;6.80;99.90;;;;;;5095472;28;20466;-79
2021/05/21 01:08:21;;;;;;;1.80;1.30;;;6.80;99.90;;;;;;5101189;28;20165;-78
2021/05/21 01:10:47;;;;;;;3.67;1.00;;;6.70;99.90;;;;;;5097423;28;20180;-80
2021/05/21 01:13:13;;;;;;;1.07;0.90;;;6.70;99.90;;;;;;5075739;28;20246;-79
2021/05/21 01:15:41;;;;;;;1.40;1.10;;;6.80;99.90;;;;;;5074990;28;20647;-79
2021/05/21 01:18:09;;;;;;;0.93;0.83;;;6.70;99.90;;;;;;5077118;28;20415;-79
2021/05/21 01:20:36;;;;;;;2.10;1.00;;;6.70;99.90;;;;;;5075860;28;20418;-80
2021/05/21 01:23:02;;;;;;;1.10;1.00;;;6.70;99.90;;;;;;5077951;28;21039;-80
2021/05/21 01:25:28;;;;;;;1.43;1.33;;;6.70;99.90;;;;;;5089051;28;20200;-80
2021/05/21 01:27:55;;;;;;;2.00;1.10;;;6.70;99.90;;;;;;5077998;28;20415;-80
2021/05/21 01:30:22;;;;;;;1.23;1.13;;;6.80;99.90;;;;;;5080173;28;20650;-80
2021/05/21 01:32:48;;;;;;;1.13;1.03;;;6.70;99.90;;;;;;5077675;28;20738;-80
2021/05/21 01:35:18;;;;;;;1.20;1.10;;;6.70;99.90;;;;;;5077252;28;20419;-80
2021/05/21 01:37:45;;;;;;;2.07;0.93;;;6.70;99.90;;;;;;5077639;28;20177;-80
2021/05/21 01:40:13;;;;;;;1.10;1.00;;;6.60;99.90;;;;;;5079146;28;20222;-80
2021/05/21 01:42:39;;;;;;;1.30;0.73;;;6.60;99.90;;;;;;5079196;28;20427;-80
2021/05/21 01:45:07;;;;;;;1.10;1.00;;;6.60;99.90;;;;;;5078299;28;20473;-80
2021/05/21 01:47:33;;;;;;;1.10;1.00;;;6.60;99.90;;;;;;5079565;28;20407;-80
2021/05/21 01:50:01;;;;;;;2.23;1.23;;;6.60;99.90;;;;;;5079448;28;20415;-80
2021/05/21 01:52:26;;;;;;;2.07;1.00;;;6.70;99.90;;;;;;5079612;28;20442;-79
2021/05/21 01:54:52;;;;;;;0.63;0.63;;;6.70;99.90;;;;;;5079248;28;20855;-79
2021/05/21 01:57:18;;;;;;;0.73;0.70;;;6.60;99.90;;;;;;5077320;28;20169;-79
2021/05/21 01:59:43;;;;;;;1.80;1.20;;;6.70;99.90;;;;;;5075790;28;20315;-80
2021/05/21 02:02:09;;;;;;;1.17;1.07;;;6.60;99.90;;;;;;5077323;28;20566;-80
2021/05/21 02:04:37;;;;;;;2.23;1.00;;;6.60;99.90;;;;;;5075605;28;20187;-79
2021/05/21 02:07:05;;;;;;;1.50;1.10;;;6.60;99.90;;;;;;5075507;28;20176;-80
2021/05/21 02:09:54;;;;;;;7.27;1.37;;;6.70;99.90;;;;;;5077147;28;20173;-80
2021/05/21 02:12:24;;;;;;;0.67;0.67;;;6.70;99.90;;;;;;5076599;28;20426;-79
2021/05/21 02:14:50;;;;;;;1.20;1.10;;;6.70;99.90;;;;;;5075726;28;20905;-80
2021/05/21 02:17:16;;;;;;;1.00;1.00;;;6.70;99.90;;;;;;5075543;28;20410;-80
2021/05/21 02:19:42;;;;;;;2.63;1.07;;;6.70;99.90;;;;;;5077398;28;20407;-79
2021/05/21 02:22:08;;;;;;;3.07;1.87;;;6.70;99.90;;;;;;5075304;28;20216;-79
2021/05/21 02:24:35;;;;;;;2.47;1.60;;;6.70;99.90;;;;;;5076246;28;20671;-79
2021/05/21 02:27:00;;;;;;;2.60;1.73;;;6.70;99.90;;;;;;5076821;28;20415;-80
2021/05/21 02:29:26;;;;;;;3.40;2.40;;;;;;;;;;5074731;28;20757;-80
2021/05/21 02:31:53;;;;;;;4.23;3.10;;;;;;;;;;5076495;28;20580;-80
2021/05/21 02:34:18;;;;;;;5.87;2.73;;;6.80;99.90;;;;;;5076514;28;20499;-80
2021/05/21 02:36:44;;;;;;;4.27;3.30;;;6.80;99.90;;;;;;5075140;28;20419;-80
2021/05/21 02:39:10;;;;;;;6.60;3.90;;;6.90;99.90;;;;;;5076828;28;20177;-80
2021/05/21 02:41:36;;;;;;;6.27;4.43;;;6.80;99.90;;;;;;5076702;28;20169;-80
2021/05/21 02:44:02;;;;;;;5.43;3.80;;;;;;;;;;5075508;28;20192;-80
2021/05/21 02:46:28;;;;;;;8.97;5.43;;;;;;;;;;5075773;28;20188;-79
2021/05/21 02:48:54;;;;;;;14.20;8.43;;;6.90;99.90;;;;;;5077280;28;20419;-79
2021/05/21 02:51:20;;;;;;;7.10;3.80;;;6.90;99.90;;;;;;5077297;28;20184;-80
2021/05/21 02:53:45;;;;;;;14.70;8.67;;;6.90;99.90;;;;;;5075982;28;20204;-80
2021/05/21 02:56:11;;;;;;;4.33;3.57;;;;;;;;;;5076850;28;20407;-80
2021/05/21 02:58:37;;;;;;;4.37;3.37;;;7.00;99.90;;;;;;5076815;28;20177;-79
2021/05/21 03:01:03;;;;;;;3.17;1.30;;;7.00;99.90;;;;;;5075980;28;20500;-79
2021/05/21 03:03:29;;;;;;;1.10;1.10;;;7.00;99.90;;;;;;5075264;28;20230;-79
2021/05/21 03:05:55;;;;;;;0.93;0.70;;;7.00;99.90;;;;;;5075331;28;20180;-80
2021/05/21 03:08:22;;;;;;;8.10;0.77;;;;;;;;;;5074227;28;20183;-80
2021/05/21 03:10:48;;;;;;;0.77;0.77;;;7.10;99.90;;;;;;5074270;28;20805;-79
2021/05/21 03:13:14;;;;;;;0.63;0.63;;;7.10;99.90;;;;;;5075286;28;20458;-79
2021/05/21 03:15:42;;;;;;;1.43;0.90;;;7.10;99.90;;;;;;5084566;28;20244;-80
2021/05/21 03:18:13;;;;;;;0.87;0.80;;;7.10;99.90;;;;;;5074935;28;20181;-80
2021/05/21 03:20:39;;;;;;;1.30;0.97;;;;;;;;;;5076514;28;20395;-80
2021/05/21 03:23:05;;;;;;;1.20;1.10;;;7.10;99.90;;;;;;5075063;28;20470;-80
2021/05/21 03:25:30;;;;;;;1.47;0.90;;;7.10;99.90;;;;;;5075174;28;20181;-80
2021/05/21 03:27:56;;;;;;;0.73;0.73;;;7.10;99.90;;;;;;5074967;28;20180;-80
2021/05/21 03:30:21;;;;;;;1.13;0.87;;;7.20;99.90;;;;;;5075191;28;20230;-80
2021/05/21 03:32:47;;;;;;;1.97;0.90;;;7.20;99.90;;;;;;5076035;28;20230;-80
2021/05/21 03:35:13;;;;;;;0.90;0.87;;;7.20;99.90;;;;;;5074735;28;20176;-80
2021/05/21 03:37:38;;;;;;;0.80;0.70;;;7.20;99.90;;;;;;5076421;28;20247;-80
2021/05/21 03:40:05;;;;;;;1.87;1.47;;;7.20;99.90;;;;;;5078463;28;20651;-80
2021/05/21 03:42:31;;;;;;;0.90;0.83;;;7.20;99.90;;;;;;5078897;28;20193;-79
2021/05/21 03:44:56;;;;;;;1.00;0.87;;;7.20;99.90;;;;;;5080560;28;20169;-79
2021/05/21 03:47:24;;;;;;;2.60;1.13;;;7.20;99.90;;;;;;5080643;28;20260;-80
2021/05/21 03:49:49;;;;;;;1.03;0.93;;;7.20;99.90;;;;;;5079205;28;20176;-80
2021/05/21 03:52:15;;;;;;;3.70;1.73;;;7.30;99.90;;;;;;5078923;28;20446;-80
2021/05/21 03:54:41;;;;;;;1.43;1.20;;;7.30;99.90;;;;;;5080596;28;20204;-80
2021/05/21 03:57:07;;;;;;;4.57;1.10;;;7.30;99.90;;;;;;5080606;28;20419;-80
2021/05/21 03:59:33;;;;;;;5.13;0.83;;;7.30;99.90;;;;;;5080846;28;20181;-81
2021/05/21 04:01:59;;;;;;;1.10;0.80;;;7.40;99.90;;;;;;5079717;28;20423;-81
2021/05/21 04:04:24;;;;;;;1.40;0.93;;;7.40;99.90;;;;;;5080627;28;20631;-80
2021/05/21 04:06:50;;;;;;;2.27;1.00;;;7.40;99.90;;;;;;5080691;28;20646;-80
2021/05/21 04:09:16;;;;;;;1.37;0.90;;;7.40;99.90;;;;;;5079982;28;20173;-80
2021/05/21 04:11:42;;;;;;;1.20;0.80;;;7.50;99.90;;;;;;5079725;28;20277;-80
2021/05/21 04:14:08;;;;;;;3.47;0.80;;;7.50;99.90;;;;;;5081235;28;20205;-80
2021/05/21 04:16:33;;;;;;;1.60;1.10;;;7.50;99.90;;;;;;5091617;28;20173;-80
2021/05/21 04:18:59;;;;;;;1.53;0.70;;;7.50;99.90;;;;;;5079005;28;20411;-80
2021/05/21 04:21:25;;;;;;;1.53;1.07;;;7.50;99.90;;;;;;5084290;28;20177;-80
2021/05/21 04:23:52;;;;;;;3.73;1.03;;;7.60;99.90;;;;;;5094809;28;20243;-80
2021/05/21 04:26:18;;;;;;;0.87;0.63;;;;;;;;;;5101086;28;20408;-79
2021/05/21 04:28:48;;;;;;;1.40;0.60;;;7.80;99.90;;;;;;5099497;28;20415;-79
2021/05/21 04:31:16;;;;;;;1.17;1.07;;;7.80;99.90;;;;;;5078105;28;20661;-81
2021/05/21 04:33:43;;;;;;;0.97;0.80;;;7.80;99.90;;;;;;5079089;28;21055;-81
2021/05/21 04:36:08;;;;;;;1.73;0.93;;;7.90;99.90;;;;;;5078969;28;20747;-81
2021/05/21 04:38:34;;;;;;;2.50;1.23;;;7.90;99.90;;;;;;5079765;28;20464;-80
2021/05/21 04:41:00;;;;;;;1.60;1.40;;;7.90;99.90;;;;;;5079176;28;20181;-80
2021/05/21 04:43:26;;;;;;;3.10;1.20;;;8.00;99.90;;;;;;5079042;28;20192;-81
2021/05/21 04:45:53;;;;;;;3.73;1.60;;;8.00;99.90;;;;;;5078912;28;20184;-81
2021/05/21 04:48:19;;;;;;;3.80;1.20;;;8.00;99.90;;;;;;5079882;28;20178;-79
2021/05/21 04:50:46;;;;;;;1.27;0.83;;;8.10;99.90;;;;;;5077615;28;20275;-79
2021/05/21 04:53:12;;;;;;;1.53;0.80;;;8.20;99.90;;;;;;5078948;28;20581;-79
2021/05/21 04:55:38;;;;;;;2.30;1.33;;;8.30;99.90;;;;;;5078396;28;20260;-78
2021/05/21 04:58:04;;;;;;;0.87;0.87;;;8.40;99.90;;;;;;5078723;28;20299;-78
2021/05/21 05:00:29;;;;;;;2.40;0.90;;;8.40;99.90;;;;;;5078682;28;20213;-79
2021/05/21 05:02:55;;;;;;;2.10;1.13;;;8.50;99.90;;;;;;5077848;28;20240;-79
2021/05/21 05:05:21;;;;;;;4.40;0.90;;;8.60;99.90;;;;;;5076974;28;20212;-79
2021/05/21 05:07:46;;;;;;;2.73;0.93;;;8.70;99.90;;;;;;5078314;28;20177;-78
2021/05/21 05:10:12;;;;;;;1.83;0.90;;;8.70;99.90;;;;;;5076824;28;20188;-77
2021/05/21 05:12:39;;;;;;;2.73;0.80;;;8.80;99.90;;;;;;5076880;28;20200;-78
2021/05/21 05:15:07;;;;;;;1.73;0.70;;;8.90;99.90;;;;;;5077720;28;20196;-80
2021/05/21 05:17:32;;;;;;;1.90;0.70;;;8.90;99.90;;;;;;5077610;28;20573;-78
2021/05/21 05:19:58;;;;;;;1.50;0.90;;;9.00;99.90;;;;;;5077424;28;20177;-78
2021/05/21 05:22:25;;;;;;;1.83;0.60;;;9.20;99.90;;;;;;5076914;28;20640;-78
2021/05/21 05:24:50;;;;;;;2.93;0.70;;;9.20;99.90;;;;;;5086196;28;20203;-80
2021/05/21 05:27:16;;;;;;;0.70;0.60;;;9.30;99.90;;;;;;5078171;28;20292;-80
2021/05/21 05:29:45;;;;;;;6.80;1.00;;;9.40;99.90;;;;;;5077511;28;20254;-80
2021/05/21 05:32:11;;;;;;;1.07;0.70;;;9.50;99.90;;;;;;5077856;28;20229;-78
2021/05/21 05:34:37;;;;;;;1.00;0.70;;;9.50;99.90;;;;;;5076430;28;20658;-78
2021/05/21 05:37:02;;;;;;;0.97;0.70;;;9.60;99.90;;;;;;5077295;28;20181;-79
2021/05/21 05:39:28;;;;;;;1.77;0.80;;;9.70;99.90;;;;;;5078398;28;20551;-78
2021/05/21 05:41:54;;;;;;;1.13;0.77;;;9.90;99.90;;;;;;5078519;28;20714;-79
2021/05/21 05:44:20;;;;;;;1.17;0.80;;;9.90;99.90;;;;;;5077619;28;20208;-78
2021/05/21 05:46:46;;;;;;;0.67;0.67;;;10.10;99.90;;;;;;5077998;28;20184;-79
2021/05/21 05:49:12;;;;;;;0.60;0.60;;;10.30;99.90;;;;;;5079383;28;20175;-79
2021/05/21 05:51:37;;;;;;;0.50;0.50;;;10.40;99.90;;;;;;5078080;28;20178;-79
2021/05/21 05:54:03;;;;;;;0.70;0.63;;;10.50;99.90;;;;;;5077231;28;20215;-79
2021/05/21 05:56:29;;;;;;;0.60;0.50;;;10.70;99.90;;;;;;5078953;28;20181;-81
2021/05/21 05:58:55;;;;;;;0.63;0.53;;;10.80;99.90;;;;;;5079367;28;20179;-81
2021/05/21 06:01:21;;;;;;;1.00;0.60;;;10.90;99.90;;;;;;5077383;28;20178;-79
2021/05/21 06:03:46;;;;;;;0.60;0.50;;;11.00;99.90;;;;;;5076717;28;20202;-79
2021/05/21 06:06:12;;;;;;;2.70;0.83;;;11.10;99.90;;;;;;5079277;28;20214;-79
2021/05/21 06:08:38;;;;;;;0.73;0.60;;;11.20;99.90;;;;;;5078497;28;20177;-79
2021/05/21 06:11:03;;;;;;;1.07;0.53;;;11.30;99.90;;;;;;5078698;28;20261;-79
2021/05/21 06:13:29;;;;;;;2.00;0.63;;;11.40;99.90;;;;;;5079046;28;20231;-79
2021/05/21 06:15:55;;;;;;;4.10;0.70;;;11.40;99.90;;;;;;5077839;28;20244;-79
2021/05/21 06:18:21;;;;;;;2.93;0.90;;;11.50;99.90;;;;;;5079205;28;20177;-79
2021/05/21 06:20:47;;;;;;;1.10;0.80;;;11.60;99.90;;;;;;5081135;28;20191;-79
2021/05/21 06:23:13;;;;;;;0.90;0.57;;;11.60;99.90;;;;;;5076584;28;20250;-79
2021/05/21 06:28:19;;;;;;;1.10;0.77;;;11.70;99.90;;;;;;5078033;28;20171;-79
2021/05/21 06:30:45;;;;;;;2.50;0.60;;;11.90;99.90;;;;;;5077082;28;20260;-79
2021/05/21 06:33:10;;;;;;;1.13;0.70;;;12.00;99.90;;;;;;5076296;28;20299;-79
2021/05/21 06:35:36;;;;;;;1.80;0.50;;;12.20;99.90;;;;;;5076484;28;20580;-79
2021/05/21 06:38:03;;;;;;;4.50;0.77;;;12.30;99.90;;;;;;5076950;28;20634;-78
2021/05/21 06:40:28;;;;;;;2.33;1.00;;;12.30;99.90;;;;;;5076940;28;20648;-78
2021/05/21 06:42:54;;;;;;;0.57;0.50;;;12.40;99.90;;;;;;5076035;28;20200;-79
2021/05/21 06:45:20;;;;;;;3.33;0.80;;;12.40;99.90;;;;;;5077974;28;20184;-79
2021/05/21 06:47:46;;;;;;;1.33;0.67;;;12.50;99.90;;;;;;5076862;28;20189;-79
2021/05/21 06:50:12;;;;;;;0.97;0.80;;;12.50;99.90;;;;;;5080595;28;20639;-79
2021/05/21 06:52:38;;;;;;;0.80;0.70;;;12.50;99.90;;;;;;5087457;28;20195;-79
2021/05/21 06:55:05;;;;;;;1.00;0.60;;;12.60;99.90;;;;;;5081935;28;20202;-79
2021/05/21 06:57:31;;;;;;;1.70;1.00;;;12.60;99.90;;;;;;5077394;28;20177;-79
2021/05/21 06:59:57;;;;;;;1.33;0.60;;;12.60;99.90;;;;;;5076908;28;20176;-79
2021/05/21 07:02:26;;;;;;;3.97;0.90;;;12.60;99.90;;;;;;5077332;28;20677;-79
2021/05/21 07:04:51;;;;;;;0.60;0.53;;;12.60;99.90;;;;;;5076699;28;20203;-82
2021/05/21 07:07:17;;;;;;;0.80;0.60;;;12.60;99.90;;;;;;5078166;28;20642;-79
2021/05/21 07:09:43;;;;;;;0.87;0.60;;;12.60;99.90;;;;;;5076661;28;20177;-79
2021/05/21 07:12:09;;;;;;;1.43;0.60;;;12.60;99.90;;;;;;5078352;28;20188;-79
2021/05/21 07:14:34;;;;;;;1.33;0.80;;;12.60;99.90;;;;;;5077088;28;20200;-79
2021/05/21 07:17:00;;;;;;;3.00;0.90;;;12.60;99.90;;;;;;5077838;28;20570;-79
2021/05/21 07:19:25;;;;;;;1.13;0.70;;;12.60;99.90;;;;;;5076967;28;20634;-79
2021/05/21 07:21:51;;;;;;;3.93;1.10;;;12.80;99.90;;;;;;5077913;28;20299;-79
2021/05/21 07:24:17;;;;;;;1.73;0.70;;;12.80;99.90;;;;;;5076671;28;20691;-81
2021/05/21 07:26:43;;;;;;;1.20;0.50;;;12.90;99.90;;;;;;5077108;28;20175;-81
2021/05/21 07:29:08;;;;;;;4.50;0.80;;;13.00;99.90;;;;;;5076391;28;20180;-82
2021/05/21 07:31:34;;;;;;;1.20;0.60;;;13.10;99.90;;;;;;5077812;28;20183;-81
2021/05/21 07:34:01;;;;;;;2.83;1.10;;;13.30;99.90;;;;;;5080218;28;20243;-81
2021/05/21 07:36:31;;;;;;;1.00;0.70;;;13.40;99.90;;;;;;5080458;28;20230;-80
2021/05/21 07:38:58;;;;;;;1.13;0.70;;;13.50;99.90;;;;;;5076816;28;20631;-78
2021/05/21 07:41:25;;;;;;;3.37;0.90;;;13.60;99.90;;;;;;5087031;28;20169;-80
2021/05/21 07:43:52;;;;;;;2.37;0.63;;;13.60;99.90;;;;;;5093839;28;20663;-81
2021/05/21 07:46:19;;;;;;;2.83;0.93;;;13.70;99.90;;;;;;5090403;28;20181;-81
2021/05/21 07:48:45;;;;;;;2.20;1.03;;;13.80;99.90;;;;;;5080544;28;20215;-81
2021/05/21 07:51:10;;;;;;;1.33;0.87;;;13.90;99.90;;;;;;5077025;28;20185;-81
2021/05/21 07:53:36;;;;;;;1.83;1.10;;;14.00;99.90;;;;;;5074621;28;20365;-79
2021/05/21 07:56:03;;;;;;;1.70;0.90;;;14.10;99.90;;;;;;5076205;28;20165;-79
2021/05/21 07:58:30;;;;;;;3.83;1.33;;;14.10;99.90;;;;;;5074827;28;20177;-78
2021/05/21 08:00:55;;;;;;;3.70;0.80;;;14.10;99.90;;;;;;5074471;28;20212;-78
2021/05/21 08:03:21;;;;;;;1.03;0.70;;;14.10;99.90;;;;;;5074620;28;20201;-79
2021/05/21 08:05:48;;;;;;;1.47;0.87;;;14.10;99.90;;;;;;5074706;28;20185;-79
2021/05/21 08:08:20;;;;;;;2.43;1.20;;;14.10;99.90;;;;;;5074866;28;20180;-79
2021/05/21 08:10:46;;;;;;;1.53;0.70;;;14.10;99.90;;;;;;5075703;28;20215;-79
2021/05/21 08:13:11;;;;;;;1.03;0.70;;;14.10;99.90;;;;;;5074465;28;20213;-79
2021/05/21 08:15:37;;;;;;;2.20;0.90;;;14.10;99.90;;;;;;5075751;28;20179;-79
2021/05/21 08:18:03;;;;;;;2.80;0.87;;;14.10;99.90;;;;;;5075971;28;20181;-79
2021/05/21 08:20:29;;;;;;;1.40;0.60;;;14.10;99.90;;;;;;5076033;28;20176;-79
2021/05/21 08:22:55;;;;;;;1.90;0.60;;;14.00;99.90;;;;;;5073978;28;20671;-79
2021/05/21 08:25:22;;;;;;;1.30;0.73;;;14.00;99.90;;;;;;5074088;28;20196;-79
2021/05/21 08:27:47;;;;;;;1.17;0.77;;;14.00;99.90;;;;;;5077504;28;20179;-79
2021/05/21 08:30:14;;;;;;;15.33;7.73;;;14.10;99.90;;;;;;5078456;28;20172;-79
2021/05/21 08:32:40;;;;;;;9.30;6.20;;;14.20;99.90;;;;;;5079387;28;20202;-79
2021/05/21 08:35:06;;;;;;;3.20;1.20;;;14.30;99.90;;;;;;5079712;28;20180;-79
2021/05/21 08:37:32;;;;;;;1.40;0.80;;;14.30;99.90;;;;;;5079598;28;20251;-81
2021/05/21 08:39:57;;;;;;;6.17;2.00;;;14.40;99.90;;;;;;5080476;28;20223;-81
2021/05/21 08:42:24;;;;;;;7.53;3.53;;;14.60;99.90;;;;;;5080321;28;20193;-82
2021/05/21 08:44:54;;;;;;;2.87;1.00;;;14.70;99.90;;;;;;5080293;28;20177;-82
2021/05/21 08:47:20;;;;;;;1.43;0.90;;;14.80;99.50;;;;;;5080106;28;20184;-82
2021/05/21 08:49:46;;;;;;;10.37;6.37;;;14.80;99.70;;;;;;5080928;28;20196;-82
2021/05/21 08:52:12;;;;;;;4.13;2.57;;;15.00;98.40;;;;;;5080324;28;20220;-82
2021/05/21 08:54:38;;;;;;;17.90;13.23;;;15.00;99.00;;;;;;5079982;28;20247;-82
2021/05/21 08:57:07;;;;;;;3.60;2.20;;;15.10;98.70;;;;;;5080111;28;20180;-81
2021/05/21 08:59:34;;;;;;;23.90;15.00;;;15.20;98.80;;;;;;5078642;28;20181;-82
2021/05/21 09:01:59;;;;;;;2.70;1.17;;;15.30;98.30;;;;;;5079338;28;20665;-79
2021/05/21 09:04:49;;;;;;;1.53;0.90;;;15.30;98.30;;;;;;5078349;28;20188;-78
2021/05/21 09:07:26;;;;;;;1.37;1.07;;;15.30;97.50;;;;;;5077817;28;20172;-79
2021/05/21 09:09:53;;;;;;;1.23;1.00;;;15.30;98.40;;;;;;5080363;28;20189;-79
2021/05/21 09:12:19;;;;;;;1.27;1.17;;;15.20;97.80;;;;;;5079291;28;20224;-79
2021/05/21 09:15:07;;;;;;;1.20;0.80;;;15.10;98.70;;;;;;5078652;28;20252;-79
2021/05/21 09:17:33;;;;;;;2.00;1.80;;;15.20;97.30;;;;;;5077522;28;20161;-79
2021/05/21 09:20:00;;;;;;;7.27;3.83;;;15.30;96.80;;;;;;5077331;28;20180;-79
2021/05/21 09:22:25;;;;;;;4.43;2.20;;;15.30;97.40;;;;;;5078712;28;20216;-82
2021/05/21 09:24:52;;;;;;;3.57;2.30;;;15.40;97.40;;;;;;5077814;28;20180;-82
2021/05/21 09:27:19;;;;;;;2.87;1.67;;;15.50;97.90;;;;;;5079011;28;20169;-82
2021/05/21 09:29:49;;;;;;;4.10;3.30;;;15.60;98.20;;;;;;5077781;28;20181;-82
2021/05/21 09:32:19;;;;;;;2.50;1.67;;;15.70;98.70;;;;;;5077608;28;20196;-82
2021/05/21 09:34:48;;;;;;;3.87;2.73;;;15.70;99.20;;;;;;5078536;28;20279;-82
2021/05/21 09:37:22;;;;;;;6.00;4.37;;;15.70;99.60;;;;;;5077331;28;20175;-82
2021/05/21 09:40:08;;;;;;;7.50;5.27;;;15.70;99.70;;;;;;5077302;28;20177;-82
2021/05/21 09:42:57;;;;;;;5.27;3.10;;;15.70;98.90;;;;;;5076237;28;20211;-82
2021/05/21 09:45:29;;;;;;;6.97;3.67;;;15.60;99.50;;;;;;5084713;28;20177;-82
2021/05/21 09:47:56;;;;;;;3.60;1.60;;;15.50;98.40;;;;;;5078623;28;20635;-82
2021/05/21 09:50:37;;;;;;;4.07;2.40;;;15.20;96.50;;;;;;5089199;28;20226;-81
2021/05/21 09:53:08;;;;;;;3.13;1.80;;;14.80;96.10;;;;;;5077537;28;20210;-82
2021/05/21 09:55:40;;;;;;;2.97;1.50;;;14.60;96.50;;;;;;5079595;28;20156;-81
2021/05/21 09:58:06;;;;;;;4.13;2.70;;;14.50;97.80;;;;;;5078305;28;20185;-82
2021/05/21 10:00:32;;;;;;;1.50;1.00;;;14.40;98.70;;;;;;5078556;28;20204;-82
2021/05/21 10:03:00;;;;;;;1.83;1.60;;;14.20;98.90;;;;;;5079411;28;20250;-82
2021/05/21 10:05:27;;;;;;;4.10;1.20;;;14.10;98.90;;;;;;5078625;28;20191;-82
2021/05/21 10:07:53;;;;;;;0.93;0.70;;;13.80;99.10;;;;;;5076930;28;20177;-81
2021/05/21 10:10:22;;;;;;;1.60;1.50;;;13.50;99.90;;;;;;5077760;28;20177;-82
2021/05/21 10:12:49;;;;;;;5.53;3.27;;;13.50;99.90;;;;;;5078872;28;20288;-80
2021/05/21 10:15:15;;;;;;;4.13;2.67;;;13.50;99.90;;;;;;5079676;28;20177;-81
2021/05/21 10:17:43;;;;;;;5.40;3.17;;;13.30;99.90;;;;;;5077490;28;20207;-81
2021/05/21 10:20:12;;;;;;;2.83;1.47;;;13.00;99.90;;;;;;5078117;28;20176;-81
2021/05/21 10:22:40;;;;;;;1.90;1.70;;;12.70;99.90;;;;;;5078894;28;20216;-81
2021/05/21 10:25:21;;;;;;;2.20;1.77;;;12.70;99.90;;;;;;5079450;28;20218;-82
2021/05/21 10:27:50;;;;;;;1.83;1.43;;;12.70;99.90;;;;;;5079118;28;20176;-81
2021/05/21 10:30:19;;;;;;;3.03;2.50;;;12.70;99.90;;;;;;5078443;28;20181;-81
2021/05/21 10:32:44;;;;;;;1.87;1.60;;;12.80;99.90;;;;;;5077764;28;20192;-82
2021/05/21 10:35:16;;;;;;;53.37;34.00;;;12.90;99.90;;;;;;5076765;28;20539;-81
2021/05/21 10:37:42;;;;;;;2.27;1.40;;;13.20;99.90;;;;;;5078611;28;20183;-82
2021/05/21 10:40:14;;;;;;;4.40;2.83;;;13.30;99.90;;;;;;5078511;28;20173;-81
2021/05/21 10:42:48;;;;;;;1.87;1.57;;;13.60;99.90;;;;;;5077448;28;20231;-82
2021/05/21 10:45:18;;;;;;;1.53;1.20;;;13.70;99.90;;;;;;5079365;28;20180;-82
2021/05/21 10:47:46;;;;;;;1.20;1.10;;;13.80;99.90;;;;;;5080256;28;20198;-82
2021/05/21 10:50:16;;;;;;;1.47;1.20;;;13.60;99.90;;;;;;5081866;28;20188;-82
2021/05/21 10:52:52;;;;;;;1.67;1.50;;;13.40;99.90;;;;;;5084326;28;20195;-82
2021/05/21 10:55:19;;;;;;;2.00;1.60;;;13.20;99.90;;;;;;5085303;28;20185;-81
2021/05/21 10:57:59;;;;;;;3.83;1.30;;;13.00;99.90;;;;;;5078056;28;20181;-81
2021/05/21 11:00:24;;;;;;;1.87;0.83;;;13.00;99.90;;;;;;5077554;28;20183;-81
2021/05/21 11:02:52;;;;;;;0.73;0.70;;;12.90;99.90;;;;;;5076965;28;20193;-81
2021/05/21 11:05:32;;;;;;;1.87;0.90;;;12.80;99.90;;;;;;5077834;28;20169;-82
2021/05/21 11:07:58;;;;;;;1.33;1.07;;;12.70;99.90;;;;;;5076935;28;20169;-81
2021/05/21 11:10:38;;;;;;;1.20;0.80;;;12.70;99.90;;;;;;5075285;28;20177;-81
2021/05/21 11:13:12;;;;;;;1.30;1.20;;;12.70;99.90;;;;;;5075349;28;20223;-82
2021/05/21 11:15:48;;;;;;;1.47;1.30;;;12.60;99.90;;;;;;5075159;28;20165;-81
2021/05/21 11:18:17;;;;;;;1.10;1.00;;;12.70;99.90;;;;;;5075322;28;20199;-81
2021/05/21 11:21:10;;;;;;;1.47;0.97;;;12.60;99.90;;;;;;5076781;28;20588;-82
2021/05/21 11:23:36;;;;;;;2.37;0.80;;;12.40;99.90;;;;;;5075328;28;20235;-81
2021/05/21 11:26:18;;;;;;;0.90;0.70;;;12.30;99.90;;;;;;5075196;28;20558;-82
2021/05/21 11:28:53;;;;;;;1.97;0.63;;;12.10;99.90;;;;;;5076803;28;20188;-81
2021/05/21 11:31:22;;;;;;;0.80;0.53;;;12.00;99.90;;;;;;5078369;28;20176;-82
2021/05/21 11:33:51;;;;;;;0.60;0.53;;;11.90;99.90;;;;;;5077274;28;20684;-82
2021/05/21 11:36:19;;;;;;;2.00;1.10;;;11.80;99.90;;;;;;5077732;28;20224;-82
2021/05/21 11:38:44;;;;;;;1.57;1.00;;;11.60;99.90;;;;;;5077978;28;20180;-81
2021/05/21 11:41:14;;;;;;;1.60;1.20;;;11.50;99.90;;;;;;5076774;28;20173;-81
2021/05/21 11:43:47;;;;;;;1.10;0.80;;;11.50;99.90;;;;;;5076969;28;20203;-82
2021/05/21 11:46:20;;;;;;;2.00;1.30;;;11.40;99.90;;;;;;5077136;28;20264;-81
2021/05/21 11:48:48;;;;;;;1.00;0.67;;;11.50;99.90;;;;;;5076749;28;20179;-82
2021/05/21 11:51:25;;;;;;;2.87;0.70;;;11.60;99.90;;;;;;5076530;28;20244;-82
2021/05/21 11:54:01;;;;;;;0.70;0.70;;;11.60;99.90;;;;;;5077200;28;20204;-81
2021/05/21 11:56:38;;;;;;;0.87;0.70;;;11.70;99.90;;;;;;5079596;28;20174;-82
2021/05/21 11:59:11;;;;;;;0.80;0.60;;;11.70;99.90;;;;;;5076734;28;20555;-82
2021/05/21 12:01:47;;;;;;;0.70;0.70;;;11.80;99.90;;;;;;5080399;28;20195;-81
2021/05/21 12:04:15;;;;;;;0.73;0.60;;;11.80;99.90;;;;;;5079247;28;20183;-81
2021/05/21 12:06:44;;;;;;;0.60;0.60;;;11.90;99.90;;;;;;5080325;28;20191;-81
2021/05/21 12:09:11;;;;;;;1.00;0.80;;;12.00;99.90;;;;;;5079639;28;20173;-82
2021/05/21 12:11:37;;;;;;;0.77;0.70;;;12.40;99.90;;;;;;5080051;28;20532;-81
2021/05/21 12:14:05;;;;;;;0.70;0.60;;;12.70;99.90;;;;;;5077513;28;20211;-81
2021/05/21 12:16:33;;;;;;;1.00;0.67;;;12.70;99.90;;;;;;5077542;28;20203;-82
2021/05/21 12:18:59;;;;;;;1.57;0.50;;;12.80;99.90;;;;;;5078366;28;20579;-82
2021/05/21 12:21:49;;;;;;;1.77;0.63;;;12.90;99.90;;;;;;5077622;28;20211;-82
2021/05/21 12:24:18;;;;;;;1.50;0.80;;;13.00;99.90;;;;;;5090477;28;20208;-82
2021/05/21 12:26:45;;;;;;;1.60;0.90;;;12.80;99.90;;;;;;5080180;28;20173;-82
2021/05/21 12:29:13;;;;;;;1.03;0.73;;;12.80;99.90;;;;;;5078983;28;20185;-82
2021/05/21 12:31:45;;;;;;;1.00;0.80;;;12.50;99.90;;;;;;5078692;28;20192;-82
2021/05/21 12:34:11;;;;;;;0.60;0.60;;;12.50;99.90;;;;;;5078045;28;20243;-82
2021/05/21 12:36:36;;;;;;;2.70;0.70;;;12.50;99.90;;;;;;5079540;28;20186;-82
2021/05/21 12:39:09;;;;;;;0.40;0.40;;;12.60;99.90;;;;;;5078734;28;20177;-83
2021/05/21 12:41:40;;;;;;;1.00;0.70;;;12.40;99.90;;;;;;5079079;28;20238;-82
2021/05/21 12:44:11;;;;;;;0.80;0.70;;;12.60;99.90;;;;;;5078647;28;20208;-83
2021/05/21 12:46:38;;;;;;;4.43;1.60;;;12.60;99.90;;;;;;5079944;28;20631;-83
2021/05/21 12:49:07;;;;;;;3.37;1.67;;;12.70;99.90;;;;;;5078448;28;20205;-82
2021/05/21 12:51:33;;;;;;;6.00;2.90;;;12.70;99.90;;;;;;5078558;28;20183;-83
2021/05/21 12:54:15;;;;;;;0.83;0.60;;;12.60;99.90;;;;;;5078414;28;20299;-83
2021/05/21 12:56:41;;;;;;;1.80;0.90;;;12.60;99.90;;;;;;5079777;28;20181;-83